createdAt,value
2019-02-08T00:01:15.917Z,26.75
2019-02-08T00:02:22.655Z,25.23
2019-02-08T00:03:29.962Z,26.12
2019-02-08T00:04:36.302Z,24.27
2019-02-08T00:05:42.802Z,24.35
2019-02-08T00:06:49.665Z,26.55
2019-02-08T00:07:56.300Z,27.13
2019-02-08T00:09:02.837Z,23.67
2019-02-08T00:10:10.554Z,24.47
2019-02-08T00:11:17.118Z,24.65
2019-02-08T00:12:23.534Z,25.32
2019-02-08T00:13:30.052Z,24.67
2019-02-08T00:14:36.470Z,21.65
2019-02-08T00:15:43.028Z,25.27
2019-02-08T00:16:49.562Z,26.33
2019-02-08T00:17:55.964Z,24.40
2019-02-08T00:19:02.319Z,24.55
2019-02-08T00:20:10.767Z,24.95
2019-02-08T00:21:17.168Z,24.15
2019-02-08T00:22:23.504Z,24.57
2019-02-08T00:23:29.780Z,26.40
2019-02-08T00:24:36.162Z,24.55
2019-02-08T00:25:42.785Z,24.65
2019-02-08T00:26:49.182Z,24.65
2019-02-08T00:27:55.544Z,23.90
2019-02-08T00:29:01.974Z,25.30
2019-02-08T00:30:11.745Z,25.37
2019-02-08T00:31:18.175Z,24.90
2019-02-08T00:32:24.706Z,25.50
2019-02-08T00:33:32.512Z,24.75
2019-02-08T00:34:39.271Z,23.95
2019-02-08T00:35:45.713Z,25.15
2019-02-08T00:36:52.070Z,24.27
2019-02-08T00:37:59.544Z,24.27
2019-02-08T00:39:10.673Z,24.77
2019-02-08T00:40:17.540Z,24.47
2019-02-08T00:41:23.931Z,24.07
2019-02-08T00:42:31.440Z,24.65
2019-02-08T00:43:38.025Z,24.10
2019-02-08T00:44:45.469Z,24.40
2019-02-08T00:45:51.958Z,24.10
2019-02-08T00:46:58.304Z,24.20
2019-02-08T00:48:04.769Z,24.10
2019-02-08T00:49:11.145Z,23.22
2019-02-08T00:50:19.411Z,24.82
2019-02-08T00:51:25.655Z,25.80
2019-02-08T00:52:33.353Z,24.45
2019-02-08T00:53:39.635Z,25.37
2019-02-08T00:54:46.061Z,24.05
2019-02-08T00:55:52.310Z,23.98
2019-02-08T00:56:58.469Z,24.45
2019-02-08T00:58:05.256Z,26.37
2019-02-08T00:59:12.929Z,25.05
2019-02-08T01:00:19.754Z,23.50
2019-02-08T01:01:26.010Z,25.52
2019-02-08T01:02:32.466Z,24.50
2019-02-08T01:03:38.973Z,23.73
2019-02-08T01:04:45.440Z,24.43
2019-02-08T01:05:52.320Z,24.72
2019-02-08T01:06:59.053Z,26.37
2019-02-08T01:08:05.762Z,24.40
2019-02-08T01:09:11.986Z,25.45
2019-02-08T01:10:24.629Z,25.27
2019-02-08T01:11:31.162Z,24.77
2019-02-08T01:12:37.592Z,25.72
2019-02-08T01:13:44.998Z,23.60
2019-02-08T01:14:51.416Z,25.88
2019-02-08T01:15:58.598Z,25.37
2019-02-08T01:17:05.206Z,25.88
2019-02-08T01:18:11.633Z,24.20
2019-02-08T01:19:17.986Z,25.50
2019-02-08T01:20:24.566Z,24.82
2019-02-08T01:21:30.969Z,25.88
2019-02-08T01:22:37.283Z,24.32
2019-02-08T01:23:43.674Z,25.60
2019-02-08T01:24:50.054Z,25.60
2019-02-08T01:25:56.500Z,25.20
2019-02-08T01:27:02.882Z,25.25
2019-02-08T01:28:10.121Z,25.20
2019-02-08T01:29:17.659Z,26.33
2019-02-08T01:30:25.983Z,25.85
2019-02-08T01:31:32.593Z,27.62
2019-02-08T01:32:39.706Z,24.80
2019-02-08T01:33:46.221Z,24.75
2019-02-08T01:34:52.663Z,25.43
2019-02-08T01:35:59.082Z,26.68
2019-02-08T01:37:05.607Z,27.73
2019-02-08T01:38:11.993Z,25.52
2019-02-08T01:39:18.318Z,26.12
2019-02-08T01:40:26.887Z,27.00
2019-02-08T01:41:33.233Z,24.35
2019-02-08T01:42:39.614Z,27.10
2019-02-08T01:43:45.909Z,27.10
2019-02-08T01:44:52.262Z,27.42
2019-02-08T01:45:58.682Z,26.52
2019-02-08T01:47:05.025Z,27.00
2019-02-08T01:48:11.548Z,27.98
2019-02-08T01:49:17.940Z,27.22
2019-02-08T01:50:25.901Z,25.90
2019-02-08T01:51:32.343Z,27.48
2019-02-08T01:52:38.806Z,27.40
2019-02-08T01:53:48.719Z,27.22
2019-02-08T01:54:53.298Z,27.30
2019-02-08T01:55:59.623Z,26.60
2019-02-08T01:57:06.123Z,26.68
2019-02-08T01:58:12.574Z,27.07
2019-02-08T01:59:18.982Z,27.27
2019-02-08T02:00:39.552Z,26.77
2019-02-08T02:01:46.013Z,26.35
2019-02-08T02:02:52.373Z,25.20
2019-02-08T02:03:58.691Z,25.15
2019-02-08T02:05:06.560Z,23.30
2019-02-08T02:06:12.936Z,24.95
2019-02-08T02:07:19.191Z,25.77
2019-02-08T02:08:25.672Z,26.65
2019-02-08T02:09:32.316Z,25.37
2019-02-08T02:10:40.940Z,26.77
2019-02-08T02:11:47.282Z,25.55
2019-02-08T02:12:53.810Z,25.10
2019-02-08T02:14:01.043Z,25.92
2019-02-08T02:15:08.502Z,26.65
2019-02-08T02:16:14.800Z,25.12
2019-02-08T02:17:21.083Z,25.90
2019-02-08T02:18:27.370Z,25.72
2019-02-08T02:19:33.632Z,25.30
2019-02-08T02:20:41.054Z,25.92
2019-02-08T02:21:47.479Z,26.02
2019-02-08T02:22:53.874Z,25.75
2019-02-08T02:24:00.523Z,26.05
2019-02-08T02:25:08.022Z,25.08
2019-02-08T02:26:14.362Z,26.35
2019-02-08T02:27:20.592Z,25.17
2019-02-08T02:28:28.077Z,25.77
2019-02-08T02:29:34.417Z,26.33
2019-02-08T02:30:40.874Z,25.75
2019-02-08T02:31:47.455Z,24.90
2019-02-08T02:32:54.062Z,25.57
2019-02-08T02:34:00.471Z,25.95
2019-02-08T02:35:08.251Z,24.67
2019-02-08T02:36:14.717Z,24.85
2019-02-08T02:37:21.153Z,24.80
2019-02-08T02:38:27.580Z,25.50
2019-02-08T02:39:33.947Z,25.82
2019-02-08T02:40:40.418Z,25.80
2019-02-08T02:41:46.752Z,25.25
2019-02-08T02:42:53.665Z,25.88
2019-02-08T02:44:00.093Z,24.50
2019-02-08T02:45:12.799Z,24.98
2019-02-08T02:46:19.197Z,23.45
2019-02-08T02:47:25.634Z,25.57
2019-02-08T02:48:31.880Z,25.57
2019-02-08T02:49:38.142Z,23.98
2019-02-08T02:50:44.495Z,23.75
2019-02-08T02:51:50.901Z,24.63
2019-02-08T02:52:57.545Z,26.52
2019-02-08T02:54:05.109Z,25.75
2019-02-08T02:55:12.410Z,25.37
2019-02-08T02:56:18.834Z,24.80
2019-02-08T02:57:25.181Z,27.10
2019-02-08T02:58:31.737Z,25.52
2019-02-08T02:59:38.062Z,25.40
2019-02-08T03:00:46.171Z,25.43
2019-02-08T03:01:52.551Z,25.57
2019-02-08T03:02:59.528Z,25.37
2019-02-08T03:04:06.494Z,25.80
2019-02-08T03:05:13.113Z,25.62
2019-02-08T03:06:19.506Z,27.25
2019-02-08T03:07:26.043Z,24.95
2019-02-08T03:08:32.394Z,25.65
2019-02-08T03:09:38.813Z,26.65
2019-02-08T03:10:45.336Z,25.52
2019-02-08T03:11:51.581Z,26.87
2019-02-08T03:12:57.914Z,26.87
2019-02-08T03:14:04.298Z,25.43
2019-02-08T03:15:11.740Z,25.35
2019-02-08T03:16:18.270Z,26.30
2019-02-08T03:17:24.494Z,26.62
2019-02-08T03:18:30.954Z,26.60
2019-02-08T03:19:37.393Z,25.02
2019-02-08T03:20:43.792Z,26.33
2019-02-08T03:21:50.138Z,26.27
2019-02-08T03:22:56.503Z,25.97
2019-02-08T03:24:02.750Z,26.73
2019-02-08T03:25:10.276Z,25.97
2019-02-08T03:26:17.872Z,26.42
2019-02-08T03:27:24.476Z,26.23
2019-02-08T03:28:31.015Z,27.77
2019-02-08T03:29:37.345Z,26.73
2019-02-08T03:30:47.807Z,25.75
2019-02-08T03:31:54.157Z,25.80
2019-02-08T03:33:00.625Z,27.93
2019-02-08T03:34:07.068Z,25.12
2019-02-08T03:35:16.179Z,26.95
2019-02-08T03:36:22.606Z,26.27
2019-02-08T03:37:28.994Z,26.40
2019-02-08T03:38:35.595Z,26.57
2019-02-08T03:39:42.045Z,27.85
2019-02-08T03:40:48.379Z,25.40
2019-02-08T03:41:54.801Z,26.15
2019-02-08T03:43:01.224Z,26.20
2019-02-08T03:44:07.805Z,27.35
2019-02-08T03:45:14.782Z,26.37
2019-02-08T03:46:21.202Z,26.00
2019-02-08T03:47:27.480Z,28.15
2019-02-08T03:48:33.920Z,27.13
2019-02-08T03:49:40.325Z,25.45
2019-02-08T03:50:46.716Z,27.37
2019-02-08T03:51:53.053Z,27.55
2019-02-08T03:52:59.411Z,28.00
2019-02-08T03:54:06.219Z,27.73
2019-02-08T03:55:14.144Z,29.18
2019-02-08T03:56:20.544Z,27.62
2019-02-08T03:57:27.033Z,28.05
2019-02-08T03:58:33.365Z,28.00
2019-02-08T03:59:39.683Z,27.45
2019-02-08T04:01:03.514Z,26.80
2019-02-08T04:02:11.011Z,27.55
2019-02-08T04:03:17.480Z,26.37
2019-02-08T04:04:23.938Z,28.07
2019-02-08T04:05:30.490Z,28.32
2019-02-08T04:06:36.872Z,27.50
2019-02-08T04:07:43.235Z,28.92
2019-02-08T04:08:49.751Z,26.90
2019-02-08T04:09:56.161Z,27.82
2019-02-08T04:11:02.561Z,28.00
2019-02-08T04:12:09.199Z,27.67
2019-02-08T04:13:16.054Z,28.07
2019-02-08T04:14:22.511Z,28.45
2019-02-08T04:15:29.026Z,29.10
2019-02-08T04:16:35.267Z,27.35
2019-02-08T04:17:41.448Z,27.27
2019-02-08T04:18:47.842Z,25.95
2019-02-08T04:19:54.334Z,27.52
2019-02-08T04:21:00.860Z,26.12
2019-02-08T04:22:07.433Z,26.33
2019-02-08T04:23:13.772Z,25.75
2019-02-08T04:24:20.141Z,26.17
2019-02-08T04:25:26.724Z,27.13
2019-02-08T04:26:33.138Z,25.95
2019-02-08T04:27:39.415Z,26.65
2019-02-08T04:28:45.691Z,26.93
2019-02-08T04:29:52.173Z,26.77
2019-02-08T04:30:58.681Z,25.62
2019-02-08T04:32:05.111Z,26.65
2019-02-08T04:33:11.471Z,26.62
2019-02-08T04:34:17.827Z,25.02
2019-02-08T04:35:24.314Z,26.65
2019-02-08T04:36:32.089Z,25.82
2019-02-08T04:37:38.453Z,26.23
2019-02-08T04:38:44.898Z,26.02
2019-02-08T04:39:51.347Z,25.37
2019-02-08T04:40:57.645Z,26.10
2019-02-08T04:42:04.209Z,26.80
2019-02-08T04:43:10.631Z,25.27
2019-02-08T04:44:17.209Z,26.27
2019-02-08T04:45:23.785Z,28.17
2019-02-08T04:46:30.286Z,26.73
2019-02-08T04:47:36.707Z,25.45
2019-02-08T04:48:43.000Z,25.88
2019-02-08T04:49:49.093Z,24.32
2019-02-08T04:50:55.664Z,27.22
2019-02-08T04:52:01.956Z,26.82
2019-02-08T04:53:08.332Z,27.40
2019-02-08T04:54:14.886Z,25.70
2019-02-08T04:55:21.580Z,26.45
2019-02-08T04:56:28.152Z,26.97
2019-02-08T04:57:34.603Z,25.77
2019-02-08T04:58:41.043Z,26.60
2019-02-08T04:59:47.621Z,27.52
2019-02-08T05:00:53.935Z,26.02
2019-02-08T05:02:00.352Z,27.02
2019-02-08T05:03:09.382Z,27.67
2019-02-08T05:04:15.927Z,25.80
2019-02-08T05:05:22.352Z,27.77
2019-02-08T05:06:28.713Z,27.67
2019-02-08T05:07:34.972Z,26.62
2019-02-08T05:08:41.233Z,25.95
2019-02-08T05:09:47.483Z,25.75
2019-02-08T05:10:53.974Z,27.87
2019-02-08T05:12:00.278Z,27.48
2019-02-08T05:13:07.191Z,28.12
2019-02-08T05:14:22.737Z,26.30
2019-02-08T05:15:31.197Z,26.17
2019-02-08T05:16:37.637Z,25.90
2019-02-08T05:17:45.094Z,27.70
2019-02-08T05:18:51.593Z,26.62
2019-02-08T05:19:58.316Z,28.67
2019-02-08T05:21:04.857Z,27.93
2019-02-08T05:22:11.491Z,27.65
2019-02-08T05:23:18.042Z,28.05
2019-02-08T05:24:26.121Z,26.60
2019-02-08T05:25:32.751Z,26.25
2019-02-08T05:26:39.123Z,27.32
2019-02-08T05:27:45.930Z,27.65
2019-02-08T05:28:52.498Z,27.40
2019-02-08T05:29:58.865Z,27.52
2019-02-08T05:31:05.279Z,28.07
2019-02-08T05:32:11.696Z,27.65
2019-02-08T05:33:19.309Z,26.10
2019-02-08T05:34:25.544Z,26.52
2019-02-08T05:35:31.953Z,23.87
2019-02-08T05:36:38.158Z,26.25
2019-02-08T05:37:44.602Z,26.97
2019-02-08T05:38:50.838Z,26.62
2019-02-08T05:39:57.185Z,25.88
2019-02-08T05:41:03.604Z,27.95
2019-02-08T05:42:09.911Z,26.52
2019-02-08T05:43:16.456Z,27.02
2019-02-08T05:44:22.851Z,28.12
2019-02-08T05:45:29.368Z,26.87
2019-02-08T05:46:36.228Z,26.95
2019-02-08T05:47:43.043Z,26.85
2019-02-08T05:48:49.344Z,28.07
2019-02-08T05:49:57.086Z,26.27
2019-02-08T05:51:03.307Z,25.72
2019-02-08T05:52:09.814Z,27.82
2019-02-08T05:53:16.243Z,27.45
2019-02-08T05:54:22.610Z,28.40
2019-02-08T05:55:30.613Z,28.67
2019-02-08T05:56:37.082Z,27.40
2019-02-08T05:57:43.994Z,26.65
2019-02-08T05:58:52.223Z,27.42
2019-02-08T05:59:58.454Z,26.82
2019-02-08T06:01:05.009Z,25.45
2019-02-08T06:02:11.421Z,26.73
2019-02-08T06:03:17.805Z,26.45
2019-02-08T06:04:24.257Z,28.17
2019-02-08T06:05:44.197Z,27.58
2019-02-08T06:06:52.197Z,26.45
2019-02-08T06:07:58.415Z,27.50
2019-02-08T06:09:07.145Z,28.45
2019-02-08T06:10:13.740Z,25.48
2019-02-08T06:11:20.050Z,26.85
2019-02-08T06:12:26.419Z,26.95
2019-02-08T06:13:32.883Z,27.10
2019-02-08T06:14:39.219Z,25.97
2019-02-08T06:15:45.568Z,26.82
2019-02-08T06:16:52.983Z,25.82
2019-02-08T06:17:59.459Z,27.75
2019-02-08T06:19:06.123Z,26.52
2019-02-08T06:20:14.192Z,27.02
2019-02-08T06:21:20.517Z,26.97
2019-02-08T06:22:26.883Z,27.40
2019-02-08T06:23:33.416Z,28.12
2019-02-08T06:24:40.283Z,26.80
2019-02-08T06:25:46.764Z,26.00
2019-02-08T06:26:53.091Z,26.20
2019-02-08T06:27:59.510Z,27.25
2019-02-08T06:29:05.958Z,27.82
2019-02-08T06:30:15.714Z,26.75
2019-02-08T06:31:22.283Z,25.90
2019-02-08T06:32:28.762Z,27.90
2019-02-08T06:33:36.183Z,28.10
2019-02-08T06:34:42.640Z,28.92
2019-02-08T06:35:48.985Z,28.00
2019-02-08T06:36:55.532Z,27.30
2019-02-08T06:38:01.971Z,28.98
2019-02-08T06:39:10.215Z,27.35
2019-02-08T06:40:19.028Z,28.90
2019-02-08T06:41:25.152Z,28.42
2019-02-08T06:42:31.600Z,27.42
2019-02-08T06:43:38.016Z,27.80
2019-02-08T06:44:44.452Z,27.75
2019-02-08T06:45:50.721Z,28.10
2019-02-08T06:46:56.962Z,26.90
2019-02-08T06:48:03.455Z,26.95
2019-02-08T06:49:09.932Z,27.07
2019-02-08T06:50:17.997Z,26.20
2019-02-08T06:51:24.533Z,26.85
2019-02-08T06:52:33.961Z,27.17
2019-02-08T06:53:40.409Z,26.90
2019-02-08T06:54:47.262Z,27.65
2019-02-08T06:55:54.062Z,27.13
2019-02-08T06:57:18.307Z,27.85
2019-02-08T06:58:49.747Z,27.10
2019-02-08T07:00:18.337Z,26.85
2019-02-08T07:01:56.336Z,27.13
2019-02-08T07:03:25.000Z,25.80
2019-02-08T07:04:59.936Z,26.62
2019-02-08T07:06:40.488Z,25.60
2019-02-08T07:08:11.828Z,26.97
2019-02-08T07:09:33.127Z,26.15
2019-02-08T07:10:57.019Z,27.02
2019-02-08T07:12:34.697Z,26.40
2019-02-08T07:14:12.295Z,28.10
2019-02-08T07:15:43.832Z,27.65
2019-02-08T07:16:58.272Z,26.35
2019-02-08T07:18:17.931Z,29.30
2019-02-08T07:19:35.464Z,29.12
2019-02-08T07:20:55.422Z,29.70
2019-02-08T07:22:12.564Z,28.07
2019-02-08T07:23:36.799Z,30.77
2019-02-08T07:24:49.406Z,28.15
2019-02-08T07:26:30.281Z,30.68
2019-02-08T07:27:45.340Z,29.07
2019-02-08T07:29:02.761Z,30.45
2019-02-08T07:30:20.095Z,28.83
2019-02-08T07:31:48.535Z,29.60
2019-02-08T07:33:16.918Z,29.70
2019-02-08T07:34:46.131Z,29.50
2019-02-08T07:36:13.139Z,29.27
2019-02-08T07:37:38.235Z,29.07
2019-02-08T07:39:22.471Z,28.42
2019-02-08T07:41:00.175Z,28.35
2019-02-08T07:42:24.139Z,29.00
2019-02-08T07:43:44.017Z,28.45
2019-02-08T07:45:13.409Z,29.07
2019-02-08T07:46:42.187Z,30.32
2019-02-08T07:48:03.399Z,28.42
2019-02-08T07:49:15.574Z,28.67
2019-02-08T07:50:32.193Z,29.48
2019-02-08T07:51:53.278Z,28.80
2019-02-08T07:53:24.929Z,28.65
2019-02-08T07:55:07.635Z,27.62
2019-02-08T07:56:36.545Z,26.95
2019-02-08T07:58:09.291Z,28.70
2019-02-08T07:59:34.095Z,28.00
2019-02-08T08:01:14.746Z,27.80
2019-02-08T08:02:43.729Z,29.40
2019-02-08T08:04:27.980Z,29.10
2019-02-08T08:06:02.282Z,28.12
2019-02-08T08:07:19.619Z,28.50
2019-02-08T08:08:43.769Z,30.12
2019-02-08T08:09:58.123Z,30.20
2019-02-08T08:11:22.398Z,28.83
2019-02-08T08:12:40.011Z,28.20
2019-02-08T08:13:56.931Z,29.60
2019-02-08T08:15:22.528Z,29.98
2019-02-08T08:17:03.262Z,28.12
2019-02-08T08:18:38.405Z,28.30
2019-02-08T08:20:05.763Z,28.17
2019-02-08T08:21:30.636Z,27.98
2019-02-08T08:23:02.517Z,28.73
2019-02-08T08:24:28.615Z,25.65
2019-02-08T08:26:04.781Z,26.48
2019-02-08T08:27:36.011Z,27.20
2019-02-08T08:29:01.526Z,27.50
2019-02-08T08:30:22.726Z,28.25
2019-02-08T08:31:53.435Z,28.75
2019-02-08T08:33:15.990Z,26.48
2019-02-08T08:34:48.866Z,26.65
2019-02-08T08:36:53.296Z,28.80
2019-02-08T08:38:36.431Z,27.60
2019-02-08T08:40:38.657Z,27.70
2019-02-08T08:42:14.759Z,28.65
2019-02-08T08:43:56.518Z,28.32
2019-02-08T08:45:54.551Z,28.60
2019-02-08T08:47:37.167Z,25.85
2019-02-08T08:49:22.956Z,26.02
2019-02-08T08:51:06.721Z,26.33
2019-02-08T08:52:54.618Z,26.90
2019-02-08T08:54:43.420Z,25.75
2019-02-08T08:56:12.887Z,26.23
2019-02-08T08:57:35.389Z,24.77
2019-02-08T08:59:23.738Z,26.23
2019-02-08T09:01:14.339Z,24.57
2019-02-08T09:02:34.022Z,23.52
2019-02-08T09:04:16.708Z,25.20
2019-02-08T09:06:09.660Z,25.65
2019-02-08T09:07:46.980Z,24.90
2019-02-08T09:09:25.949Z,26.68
2019-02-08T09:11:12.052Z,24.57
2019-02-08T09:12:44.364Z,25.12
2019-02-08T09:14:23.024Z,24.72
2019-02-08T09:16:13.106Z,25.02
2019-02-08T09:17:52.963Z,25.62
2019-02-08T09:19:27.268Z,24.80
2019-02-08T09:21:03.709Z,26.27
2019-02-08T09:22:57.473Z,26.65
2019-02-08T09:24:26.664Z,24.20
2019-02-08T09:26:15.014Z,24.80
2019-02-08T09:27:54.235Z,25.50
2019-02-08T09:29:53.319Z,24.87
2019-02-08T09:31:44.691Z,26.65
2019-02-08T09:33:26.531Z,23.65
2019-02-08T09:35:02.844Z,25.02
2019-02-08T09:37:00.331Z,24.77
2019-02-08T09:38:47.041Z,24.00
2019-02-08T09:40:38.656Z,25.60
2019-02-08T09:42:12.237Z,24.70
2019-02-08T09:44:00.381Z,24.27
2019-02-08T09:45:45.061Z,25.25
2019-02-08T09:47:27.139Z,24.30
2019-02-08T09:49:26.539Z,24.87
2019-02-08T09:50:58.983Z,23.47
2019-02-08T09:52:44.596Z,24.47
2019-02-08T09:54:24.412Z,23.95
2019-02-08T09:56:23.400Z,25.65
2019-02-08T09:58:19.520Z,24.10
2019-02-08T10:00:18.830Z,24.65
2019-02-08T10:02:07.810Z,25.77
2019-02-08T10:03:57.549Z,24.98
2019-02-08T10:05:44.803Z,24.57
2019-02-08T10:07:42.671Z,26.68
2019-02-08T10:09:24.314Z,23.57
2019-02-08T10:11:16.952Z,24.85
2019-02-08T10:12:58.840Z,26.23
2019-02-08T10:14:57.428Z,23.95
2019-02-08T10:16:39.107Z,25.35
2019-02-08T10:18:20.998Z,24.95
2019-02-08T10:19:59.723Z,26.40
2019-02-08T10:21:37.497Z,25.77
2019-02-08T10:23:24.395Z,26.25
2019-02-08T10:25:20.432Z,25.15
2019-02-08T10:26:56.419Z,25.05
2019-02-08T10:28:42.250Z,24.40
2019-02-08T10:30:31.520Z,25.30
2019-02-08T10:32:29.073Z,26.05
2019-02-08T10:34:17.814Z,24.30
2019-02-08T10:36:04.727Z,24.07
2019-02-08T10:37:46.918Z,24.12
2019-02-08T10:39:29.290Z,24.67
2019-02-08T10:41:17.386Z,24.37
2019-02-08T10:43:15.638Z,27.30
2019-02-08T10:45:08.996Z,24.95
2019-02-08T10:46:52.912Z,26.25
2019-02-08T10:48:33.890Z,25.55
2019-02-08T10:50:33.215Z,24.55
2019-02-08T10:52:15.280Z,24.37
2019-02-08T10:54:10.791Z,24.27
2019-02-08T10:56:14.797Z,24.70
2019-02-08T10:58:06.423Z,24.65
2019-02-08T11:00:09.187Z,25.32
2019-02-08T11:02:26.814Z,25.30
2019-02-08T11:04:18.743Z,24.63
2019-02-08T11:05:54.217Z,22.35
2019-02-08T11:07:56.747Z,23.10
2019-02-08T11:09:52.522Z,23.92
2019-02-08T11:11:35.907Z,25.08
2019-02-08T11:13:19.210Z,27.00
2019-02-08T11:15:17.078Z,25.30
2019-02-08T11:17:06.342Z,26.20
2019-02-08T11:19:08.807Z,25.82
2019-02-08T11:20:15.391Z,23.18
2019-02-08T11:21:21.736Z,25.43
2019-02-08T11:22:28.435Z,24.77
2019-02-08T11:23:36.012Z,24.45
2019-02-08T11:24:42.735Z,24.85
2019-02-08T11:25:49.104Z,24.67
2019-02-08T11:26:56.451Z,25.35
2019-02-08T11:28:02.833Z,24.87
2019-02-08T11:29:09.421Z,26.02
2019-02-08T11:30:20.059Z,24.87
2019-02-08T11:31:26.361Z,24.72
2019-02-08T11:32:42.862Z,24.63
2019-02-08T11:33:40.641Z,24.40
2019-02-08T11:34:46.970Z,23.92
2019-02-08T11:35:53.509Z,25.25
2019-02-08T11:36:59.891Z,25.23
2019-02-08T11:38:06.290Z,24.47
2019-02-08T11:39:16.373Z,25.90
2019-02-08T11:40:26.077Z,25.90
2019-02-08T11:41:32.753Z,25.48
2019-02-08T11:42:39.273Z,26.23
2019-02-08T11:43:45.731Z,27.07
2019-02-08T11:44:52.066Z,24.60
2019-02-08T11:45:58.653Z,25.80
2019-02-08T11:47:05.145Z,24.20
2019-02-08T11:48:11.510Z,23.90
2019-02-08T11:49:18.002Z,24.05
2019-02-08T11:50:24.731Z,24.47
2019-02-08T11:51:31.333Z,23.67
2019-02-08T11:52:37.916Z,23.27
2019-02-08T11:53:44.363Z,23.90
2019-02-08T11:54:50.773Z,24.05
2019-02-08T11:55:57.295Z,22.75
2019-02-08T11:57:03.811Z,24.12
2019-02-08T11:58:10.183Z,23.90
2019-02-08T11:59:16.461Z,24.57
2019-02-08T12:00:39.082Z,23.92
2019-02-08T12:01:49.941Z,23.47
2019-02-08T12:02:56.439Z,24.27
2019-02-08T12:04:03.010Z,24.50
2019-02-08T12:05:09.752Z,24.30
2019-02-08T12:06:16.222Z,23.52
2019-02-08T12:07:22.736Z,24.47
2019-02-08T12:08:29.221Z,25.25
2019-02-08T12:09:35.634Z,23.92
2019-02-08T12:10:41.984Z,23.70
2019-02-08T12:11:48.634Z,24.37
2019-02-08T12:12:55.027Z,24.77
2019-02-08T12:14:01.662Z,24.82
2019-02-08T12:15:08.963Z,24.43
2019-02-08T12:16:15.574Z,26.15
2019-02-08T12:17:21.948Z,24.45
2019-02-08T12:18:28.469Z,24.70
2019-02-08T12:19:34.834Z,24.55
2019-02-08T12:20:41.504Z,24.63
2019-02-08T12:21:47.984Z,23.15
2019-02-08T12:22:54.507Z,22.48
2019-02-08T12:24:00.902Z,24.02
2019-02-08T12:25:08.098Z,24.23
2019-02-08T12:26:14.601Z,25.17
2019-02-08T12:27:21.185Z,23.45
2019-02-08T12:28:27.702Z,24.05
2019-02-08T12:29:34.059Z,24.80
2019-02-08T12:30:41.359Z,24.15
2019-02-08T12:31:47.815Z,23.77
2019-02-08T12:32:54.568Z,22.37
2019-02-08T12:34:00.879Z,24.92
2019-02-08T12:35:08.400Z,23.92
2019-02-08T12:36:14.992Z,23.50
2019-02-08T12:37:21.517Z,23.27
2019-02-08T12:38:27.946Z,23.80
2019-02-08T12:39:34.921Z,23.47
2019-02-08T12:40:41.627Z,23.45
2019-02-08T12:41:48.119Z,23.62
2019-02-08T12:42:54.486Z,24.65
2019-02-08T12:44:00.919Z,22.25
2019-02-08T12:45:08.256Z,22.73
2019-02-08T12:46:14.683Z,22.60
2019-02-08T12:47:21.177Z,22.95
2019-02-08T12:48:27.722Z,24.32
2019-02-08T12:49:34.204Z,24.47
2019-02-08T12:50:40.721Z,23.02
2019-02-08T12:51:47.516Z,22.00
2019-02-08T12:52:53.995Z,23.02
2019-02-08T12:54:00.402Z,22.90
2019-02-08T12:55:07.875Z,22.85
2019-02-08T12:56:15.284Z,22.87
2019-02-08T12:57:21.975Z,22.60
2019-02-08T12:58:28.482Z,22.60
2019-02-08T12:59:35.278Z,22.37
2019-02-08T13:00:41.854Z,21.77
2019-02-08T13:01:48.364Z,22.02
2019-02-08T13:02:54.475Z,21.17
2019-02-08T13:04:03.419Z,21.77
2019-02-08T13:05:11.103Z,21.10
2019-02-08T13:06:17.622Z,21.10
2019-02-08T13:07:24.376Z,21.85
2019-02-08T13:08:30.818Z,21.07
2019-02-08T13:09:37.291Z,20.43
2019-02-08T13:10:43.754Z,22.20
2019-02-08T13:11:50.278Z,22.60
2019-02-08T13:12:56.495Z,21.65
2019-02-08T13:14:03.044Z,20.65
2019-02-08T13:15:10.511Z,21.90
2019-02-08T13:16:16.770Z,22.70
2019-02-08T13:17:23.076Z,22.58
2019-02-08T13:18:29.545Z,21.20
2019-02-08T13:19:36.535Z,22.98
2019-02-08T13:20:42.880Z,21.57
2019-02-08T13:21:49.355Z,21.75
2019-02-08T13:22:56.035Z,21.93
2019-02-08T13:24:02.502Z,22.80
2019-02-08T13:25:09.354Z,23.38
2019-02-08T13:26:15.795Z,23.38
2019-02-08T13:27:22.334Z,23.73
2019-02-08T13:28:28.693Z,23.18
2019-02-08T13:29:35.273Z,21.52
2019-02-08T13:30:41.761Z,21.65
2019-02-08T13:31:48.294Z,21.17
2019-02-08T13:32:55.138Z,22.02
2019-02-08T13:34:01.551Z,22.07
2019-02-08T13:35:08.958Z,21.07
2019-02-08T13:36:16.870Z,21.20
2019-02-08T13:37:23.372Z,21.85
2019-02-08T13:38:29.839Z,22.07
2019-02-08T13:39:36.269Z,21.65
2019-02-08T13:40:42.974Z,22.13
2019-02-08T13:41:49.427Z,22.70
2019-02-08T13:42:55.882Z,19.98
2019-02-08T13:44:02.307Z,20.17
2019-02-08T13:45:09.077Z,19.55
2019-02-08T13:46:15.546Z,21.37
2019-02-08T13:47:21.790Z,19.82
2019-02-08T13:48:28.448Z,18.27
2019-02-08T13:49:34.983Z,19.95
2019-02-08T13:50:41.540Z,18.32
2019-02-08T13:51:47.932Z,18.48
2019-02-08T13:52:54.482Z,18.90
2019-02-08T13:54:01.062Z,18.82
2019-02-08T13:55:08.306Z,17.73
2019-02-08T13:56:14.665Z,17.15
2019-02-08T13:57:22.260Z,17.45
2019-02-08T13:58:28.557Z,17.50
2019-02-08T13:59:35.086Z,17.75
2019-02-08T14:00:41.982Z,17.42
2019-02-08T14:01:48.401Z,16.00
2019-02-08T14:02:54.960Z,16.35
2019-02-08T14:04:03.942Z,16.55
2019-02-08T14:05:11.162Z,17.10
2019-02-08T14:06:17.806Z,16.70
2019-02-08T14:07:25.374Z,16.07
2019-02-08T14:08:31.847Z,16.85
2019-02-08T14:09:38.419Z,16.60
2019-02-08T14:10:44.977Z,15.72
2019-02-08T14:11:51.517Z,16.32
2019-02-08T14:12:58.141Z,16.07
2019-02-08T14:14:04.460Z,16.07
2019-02-08T14:15:11.288Z,16.75
2019-02-08T14:16:17.923Z,16.37
2019-02-08T14:17:24.602Z,16.95
2019-02-08T14:18:30.911Z,15.68
2019-02-08T14:19:37.299Z,16.95
2019-02-08T14:20:43.833Z,17.20
2019-02-08T14:21:50.325Z,16.65
2019-02-08T14:22:57.133Z,15.88
2019-02-08T14:24:04.693Z,16.95
2019-02-08T14:25:12.566Z,16.73
2019-02-08T14:26:20.424Z,16.67
2019-02-08T14:27:27.065Z,16.57
2019-02-08T14:28:33.320Z,16.82
2019-02-08T14:29:39.910Z,17.27
2019-02-08T14:30:46.706Z,16.57
2019-02-08T14:31:53.333Z,17.45
2019-02-08T14:32:59.979Z,17.20
2019-02-08T14:34:06.542Z,16.30
2019-02-08T14:35:13.554Z,16.57
2019-02-08T14:36:20.096Z,16.20
2019-02-08T14:37:26.331Z,15.80
2019-02-08T14:38:32.866Z,16.90
2019-02-08T14:39:39.405Z,15.78
2019-02-08T14:40:46.040Z,15.20
2019-02-08T14:41:52.481Z,16.32
2019-02-08T14:42:59.730Z,16.27
2019-02-08T14:44:06.096Z,14.45
2019-02-08T14:45:13.466Z,15.75
2019-02-08T14:46:19.925Z,15.50
2019-02-08T14:47:26.561Z,16.02
2019-02-08T14:48:33.349Z,16.17
2019-02-08T14:49:40.643Z,15.95
2019-02-08T14:50:47.289Z,15.45
2019-02-08T14:51:53.744Z,18.62
2019-02-08T14:53:00.669Z,16.27
2019-02-08T14:54:08.533Z,15.35
2019-02-08T14:55:15.764Z,15.93
2019-02-08T14:56:22.364Z,16.40
2019-02-08T14:57:28.800Z,15.20
2019-02-08T14:58:35.237Z,16.07
2019-02-08T14:59:41.833Z,17.10
2019-02-08T15:00:48.274Z,17.50
2019-02-08T15:01:54.914Z,19.55
2019-02-08T15:03:01.272Z,20.82
2019-02-08T15:04:08.016Z,21.40
2019-02-08T15:05:15.442Z,25.92
2019-02-08T15:06:21.940Z,17.42
2019-02-08T15:07:28.498Z,19.00
2019-02-08T15:08:36.035Z,19.25
2019-02-08T15:09:42.693Z,21.23
2019-02-08T15:10:50.487Z,19.62
2019-02-08T15:11:56.846Z,21.42
2019-02-08T15:13:03.380Z,22.65
2019-02-08T15:14:09.864Z,21.23
2019-02-08T15:15:16.848Z,23.47
2019-02-08T15:16:23.336Z,20.08
2019-02-08T15:17:29.857Z,20.40
2019-02-08T15:18:36.246Z,19.35
2019-02-08T15:19:45.119Z,20.20
2019-02-08T15:20:51.635Z,21.80
2019-02-08T15:21:58.202Z,21.80
2019-02-08T15:23:05.022Z,21.93
2019-02-08T15:24:12.618Z,24.72
2019-02-08T15:25:20.913Z,21.42
2019-02-08T15:26:27.979Z,22.77
2019-02-08T15:27:34.625Z,24.37
2019-02-08T15:28:41.263Z,21.10
2019-02-08T15:29:47.744Z,21.80
2019-02-08T15:30:54.279Z,23.25
2019-02-08T15:32:00.709Z,21.65
2019-02-08T15:33:08.401Z,24.23
2019-02-08T15:34:15.040Z,23.85
2019-02-08T15:35:23.645Z,24.45
2019-02-08T15:36:30.107Z,26.10
2019-02-08T15:37:36.741Z,29.32
2019-02-08T15:38:43.177Z,29.40
2019-02-08T15:39:49.792Z,30.35
2019-02-08T15:40:57.702Z,27.95
2019-02-08T15:42:04.055Z,25.70
2019-02-08T15:43:11.512Z,31.20
2019-02-08T15:44:17.912Z,30.02
2019-02-08T15:45:25.153Z,30.37
2019-02-08T15:46:31.726Z,32.38